Time;durP1;ratioP1;P1;durP2;ratioP2;P2;SDS_P1;SDS_P2;PMS_P1;PMS_P2;Temp;Humidity;BMP_temperature;BMP_pressure;BME280_temperature;BME280_humidity;BME280_pressure;Samples;Min_cycle;Max_cycle;Signal;HPM_P1;HPM_P2
2024/01/06 00:00:03;;;;;;;;;;;;;;;-1.59;90.40;100196.27;105969;1296;59146;-62
2024/01/06 00:02:49;;;;;;;26.10;16.70;;;;;;;-1.60;90.43;100199.45;105979;1292;58665;-62
2024/01/06 00:05:35;;;;;;;26.20;15.30;;;;;;;-1.60;90.43;100192.54;105783;1292;74333;-62
2024/01/06 00:08:21;;;;;;;25.70;17.20;;;;;;;-1.60;90.46;100185.10;105991;1293;67444;-62
2024/01/06 00:11:07;;;;;;;25.20;16.20;;;;;;;-1.61;90.48;100187.09;105966;1294;71277;-62
2024/01/06 00:13:53;;;;;;;27.40;17.20;;;;;;;-1.61;90.48;100188.61;105914;1293;59533;-62
2024/01/06 00:16:39;;;;;;;25.40;15.90;;;;;;;-1.61;90.53;100188.13;105983;1293;58934;-62
2024/01/06 00:19:25;;;;;;;27.00;16.80;;;;;;;-1.59;90.52;100187.83;105850;1294;73398;-61
2024/01/06 00:22:11;;;;;;;28.00;17.60;;;;;;;-1.57;90.55;100189.91;105968;1293;67420;-62
2024/01/06 00:24:56;;;;;;;;;;;;;;;-1.59;90.50;100188.84;105956;1293;71387;-62
2024/01/06 00:27:42;;;;;;;;;;;;;;;-1.59;90.55;100193.58;105936;1293;58853;-62
2024/01/06 00:30:28;;;;;;;30.20;16.90;;;;;;;-1.60;90.61;100191.52;105967;1294;59924;-61
2024/01/06 00:33:14;;;;;;;28.80;16.20;;;;;;;-1.59;90.55;100201.67;105963;1292;73407;-62
2024/01/06 00:36:00;;;;;;;32.20;18.90;;;;;;;-1.60;90.56;100207.08;105974;1293;68377;-61
2024/01/06 00:38:46;;;;;;;29.90;19.50;;;;;;;-1.61;90.53;100206.19;105927;1292;71204;-62
2024/01/06 00:41:32;;;;;;;33.90;18.80;;;;;;;-1.61;90.55;100209.73;105965;1297;58916;-62
2024/01/06 00:44:18;;;;;;;28.10;18.00;;;;;;;-1.63;90.55;100212.73;105951;1292;59238;-61
2024/01/06 00:47:04;;;;;;;32.70;19.10;;;;;;;-1.63;90.60;100214.76;105830;1293;73378;-61
2024/01/06 00:49:50;;;;;;;30.90;18.50;;;;;;;-1.62;90.57;100212.27;105952;1294;68524;-61
2024/01/06 00:52:36;;;;;;;29.10;18.60;;;;;;;-1.62;90.55;100212.91;105949;1292;71717;-61
2024/01/06 00:55:23;;;;;;;29.90;17.70;;;;;;;-1.63;90.55;100215.44;105973;1292;59338;-62
2024/01/06 00:58:09;;;;;;;35.70;18.50;;;;;;;-1.62;90.61;100213.11;105933;1292;59378;-62
2024/01/06 01:00:55;;;;;;;33.30;19.80;;;;;;;-1.61;90.59;100217.17;105957;1294;75293;-62
2024/01/06 01:03:41;;;;;;;31.00;18.00;;;;;;;-1.64;90.58;100225.05;105987;1292;66814;-61
2024/01/06 01:06:27;;;;;;;33.60;18.50;;;;;;;-1.63;90.58;100221.53;105953;1292;72026;-61
2024/01/06 01:09:14;;;;;;;35.90;19.60;;;;;;;-1.60;90.63;100216.17;105945;1293;59618;-62
2024/01/06 01:12:00;;;;;;;28.60;17.40;;;;;;;-1.59;90.62;100218.08;105941;1293;59106;-61
2024/01/06 01:14:46;;;;;;;26.40;16.50;;;;;;;-1.57;90.70;100219.13;105912;1292;73226;-62
2024/01/06 01:17:32;;;;;;;28.20;17.30;;;;;;;-1.57;90.81;100217.12;105951;1293;67188;-62
2024/01/06 01:20:18;;;;;;;29.50;17.50;;;;;;;-1.55;90.66;100211.72;105841;1294;72579;-62
2024/01/06 01:23:04;;;;;;;31.30;18.80;;;;;;;-1.54;90.61;100213.77;105927;1293;59402;-61
2024/01/06 01:25:50;;;;;;;25.80;17.90;;;;;;;-1.56;90.59;100212.23;105976;1292;60962;-61
2024/01/06 01:28:36;;;;;;;27.00;18.10;;;;;;;-1.54;90.67;100210.21;105956;1293;75297;-61
2024/01/06 01:31:22;;;;;;;26.20;17.00;;;;;;;-1.54;90.72;100215.30;105946;1292;69686;-61
2024/01/06 01:34:08;;;;;;;30.40;18.40;;;;;;;-1.57;90.73;100213.05;105978;1293;71272;-61
2024/01/06 01:36:54;;;;;;;;;;;;;;;-1.59;90.76;100209.79;105969;1292;60033;-61
2024/01/06 01:39:40;;;;;;;;;;;;;;;-1.58;90.77;100216.09;105982;1292;58923;-61
2024/01/06 01:42:26;;;;;;;25.90;17.10;;;;;;;-1.58;90.87;100225.20;105821;1293;74472;-61
2024/01/06 01:45:12;;;;;;;27.70;17.30;;;;;;;-1.59;90.91;100225.86;105960;1293;68084;-61
2024/01/06 01:47:58;;;;;;;24.90;17.90;;;;;;;-1.61;90.87;100230.36;105904;1293;71254;-61
2024/01/06 01:51:03;;;;;;;24.90;17.90;;;;;;;-1.61;90.96;100228.15;89665;1295;10002084;-60
2024/01/06 01:54:19;;;;;;;27.20;16.90;;;;;;;-1.62;91.00;100228.98;83920;1293;20073556;-61
2024/01/06 01:57:05;;;;;;;31.70;19.40;;;;;;;-1.60;90.87;100230.89;105947;1293;68511;-61
2024/01/06 01:59:52;;;;;;;24.60;15.90;;;;;;;-1.61;90.87;100229.18;105926;1292;72421;-61
2024/01/06 02:02:38;;;;;;;31.30;18.00;;;;;;;-1.60;90.88;100230.05;105832;1292;59320;-61
2024/01/06 02:05:24;;;;;;;28.90;18.10;;;;;;;-1.62;90.84;100227.63;105948;1293;59198;-61
2024/01/06 02:08:11;;;;;;;27.00;16.40;;;;;;;-1.62;90.93;100229.64;105929;1292;74619;-61
2024/01/06 02:10:57;;;;;;;26.80;16.40;;;;;;;-1.63;90.92;100233.17;105928;1293;67145;-61
2024/01/06 02:13:43;;;;;;;25.60;16.80;;;;;;;-1.64;90.99;100233.99;105942;1292;73043;-61
2024/01/06 02:16:29;;;;;;;28.10;18.00;;;;;;;-1.63;90.91;100238.58;105924;1293;60790;-61
2024/01/06 02:19:17;;;;;;;32.70;18.60;;;;;;;-1.63;90.92;100237.73;105815;1292;59799;-61
2024/01/06 02:22:03;;;;;;;22.10;15.90;;;;;;;-1.64;90.95;100239.24;105840;1292;73263;-61
2024/01/06 02:24:49;;;;;;;;;;;;;;;-1.63;90.94;100238.23;105977;1292;67523;-61
2024/01/06 02:27:35;;;;;;;;;;;;;;;-1.66;90.94;100235.13;105946;1293;71180;-61
2024/01/06 02:30:21;;;;;;;23.40;15.40;;;;;;;-1.64;90.96;100239.55;105934;1293;58896;-61
2024/01/06 02:33:07;;;;;;;24.90;16.60;;;;;;;-1.64;90.94;100238.54;105830;1294;59017;-61
2024/01/06 02:35:52;;;;;;;22.60;15.50;;;;;;;-1.64;90.95;100235.18;105954;1294;74537;-61
2024/01/06 02:38:38;;;;;;;26.90;16.10;;;;;;;-1.64;90.93;100232.48;105949;1294;68507;-61
2024/01/06 02:41:25;;;;;;;28.90;16.80;;;;;;;-1.63;91.00;100233.51;105936;1294;71420;-61
2024/01/06 02:44:11;;;;;;;26.00;15.90;;;;;;;-1.63;90.95;100231.99;105789;1294;59066;-61
2024/01/06 02:46:57;;;;;;;28.70;16.00;;;;;;;-1.63;90.94;100230.98;105952;1294;59011;-61
2024/01/06 02:49:43;;;;;;;25.50;16.30;;;;;;;-1.64;91.15;100232.81;105967;1295;73480;-61
2024/01/06 02:52:29;;;;;;;;;;;;;;;-1.64;91.27;100237.02;105990;1292;66685;-61
2024/01/06 02:55:15;;;;;;;29.70;18.60;;;;;;;-1.65;91.18;100239.89;105941;1294;71256;-61
2024/01/06 02:58:01;;;;;;;28.70;17.80;;;;;;;-1.67;91.01;100243.55;105963;1293;59289;-61
2024/01/06 03:00:47;;;;;;;24.20;15.90;;;;;;;-1.65;91.02;100248.50;105991;1293;59495;-60
2024/01/06 03:03:33;;;;;;;25.10;17.70;;;;;;;-1.65;91.03;100248.15;105955;1293;73829;-61
2024/01/06 03:06:19;;;;;;;25.60;16.80;;;;;;;-1.67;90.99;100247.27;105951;1293;69340;-61
2024/01/06 03:09:05;;;;;;;27.10;16.90;;;;;;;-1.68;90.98;100246.06;105961;1292;71616;-61
2024/01/06 03:11:51;;;;;;;27.00;17.40;;;;;;;-1.68;91.08;100240.66;105951;1292;58973;-61
2024/01/06 03:14:37;;;;;;;26.00;17.70;;;;;;;-1.65;91.01;100240.39;105979;1292;59170;-61
2024/01/06 03:17:23;;;;;;;26.00;17.30;;;;;;;-1.67;91.01;100236.80;105811;1294;73443;-61
2024/01/06 03:20:09;;;;;;;28.10;16.70;;;;;;;-1.67;90.98;100241.35;105827;1293;67533;-61
2024/01/06 03:22:55;;;;;;;32.90;18.20;;;;;;;-1.69;91.02;100236.91;105942;1292;72523;-61
2024/01/06 03:25:41;;;;;;;28.00;17.60;;;;;;;-1.70;91.01;100244.33;105961;1292;59500;-61
2024/01/06 03:28:27;;;;;;;23.70;16.50;;;;;;;-1.70;91.09;100242.29;105940;1293;60073;-61
2024/01/06 03:31:13;;;;;;;30.10;18.60;;;;;;;-1.67;91.13;100244.56;105945;1292;75142;-61
2024/01/06 03:33:59;;;;;;;25.30;16.40;;;;;;;-1.69;91.10;100245.53;105968;1294;68406;-61
2024/01/06 03:36:45;;;;;;;;;;;;;;;-1.68;91.07;100253.83;105960;1293;71182;-61
2024/01/06 03:39:31;;;;;;;27.40;17.80;;;;;;;-1.71;91.11;100250.54;105988;1293;59372;-61
2024/01/06 03:42:17;;;;;;;24.60;17.30;;;;;;;-1.70;91.07;100254.78;106007;1293;59481;-61
2024/01/06 03:45:03;;;;;;;25.80;17.10;;;;;;;-1.71;91.02;100254.42;105965;1293;74157;-61
2024/01/06 03:47:49;;;;;;;29.40;17.40;;;;;;;-1.70;91.05;100259.67;105972;1293;68568;-61
2024/01/06 03:50:35;;;;;;;23.80;16.80;;;;;;;-1.71;91.14;100264.05;105976;1293;71219;-61
2024/01/06 03:53:21;;;;;;;27.50;17.90;;;;;;;-1.70;91.03;100267.62;105796;1293;58922;-61
2024/01/06 03:56:08;;;;;;;31.70;17.60;;;;;;;-1.74;90.96;100262.11;105968;1293;58962;-60
2024/01/06 03:58:53;;;;;;;;;;;;;;;-1.73;91.01;100258.44;106017;1294;73394;-61
2024/01/06 04:01:39;;;;;;;29.70;17.30;;;;;;;-1.71;90.99;100256.96;105985;1294;67421;-61
2024/01/06 04:04:25;;;;;;;27.90;16.90;;;;;;;-1.70;91.00;100264.42;105809;1294;72990;-61
2024/01/06 04:07:11;;;;;;;29.20;17.70;;;;;;;-1.69;91.05;100268.33;105969;1293;59238;-61
2024/01/06 04:10:06;;;;;;;29.20;17.70;;;;;;;-1.72;90.99;100272.64;53843;1294;20001753;-61
2024/01/06 04:13:12;;;;;;;30.30;19.40;;;;;;;-1.72;91.02;100268.23;105868;1292;69662;-61
2024/01/06 04:15:58;;;;;;;27.80;18.30;;;;;;;-1.73;90.99;100272.27;105972;1293;59460;-61
2024/01/06 04:18:44;;;;;;;26.10;17.50;;;;;;;-1.72;91.01;100276.02;106001;1293;60705;-61
2024/01/06 04:21:30;;;;;;;26.70;17.90;;;;;;;-1.73;90.96;100279.21;83594;1297;5004941;-61
2024/01/06 04:24:17;;;;;;;27.50;17.10;;;;;;;-1.73;90.98;100282.92;105804;1292;71156;-61
2024/01/06 04:27:04;;;;;;;29.00;17.40;;;;;;;-1.73;91.01;100284.78;105981;1293;59355;-61
2024/01/06 04:29:52;;;;;;;28.20;17.60;;;;;;;-1.73;90.91;100280.06;105973;1293;58953;-61
2024/01/06 04:32:39;;;;;;;25.30;17.60;;;;;;;-1.73;90.96;100277.69;105979;1293;74506;-61
2024/01/06 04:35:25;;;;;;;29.10;19.00;;;;;;;-1.73;90.98;100275.83;105991;1293;67240;-61
2024/01/06 04:38:11;;;;;;;29.30;17.90;;;;;;;-1.73;90.95;100276.50;105931;1293;71319;-61
2024/01/06 04:40:57;;;;;;;25.30;17.30;;;;;;;-1.73;91.03;100276.67;105967;1293;59518;-61
2024/01/06 04:43:43;;;;;;;28.90;18.80;;;;;;;-1.72;90.97;100276.70;105976;1292;59062;-61
2024/01/06 04:46:30;;;;;;;28.80;19.70;;;;;;;-1.73;90.96;100274.82;105977;1292;72922;-61
2024/01/06 04:49:16;;;;;;;27.20;18.70;;;;;;;-1.72;91.03;100273.15;105856;1292;69265;-61
2024/01/06 04:52:02;;;;;;;29.00;18.70;;;;;;;-1.74;90.89;100275.13;105936;1294;72143;-61
2024/01/06 04:54:48;;;;;;;;;;;;;;;-1.74;90.97;100282.05;105965;1293;58971;-61
2024/01/06 04:57:34;;;;;;;27.80;18.50;;;;;;;-1.73;90.94;100281.91;105941;1293;59636;-61
2024/01/06 05:00:20;;;;;;;26.60;17.70;;;;;;;-1.73;90.97;100284.77;105970;1292;74113;-61
2024/01/06 05:03:06;;;;;;;29.10;18.10;;;;;;;-1.75;90.87;100284.22;105886;1292;69309;-60
2024/01/06 05:05:52;;;;;;;31.60;18.70;;;;;;;-1.76;90.80;100282.83;104478;1292;71676;-60
2024/01/06 05:08:44;;;;;;;30.30;17.90;;;;;;;-1.78;90.87;100288.52;104513;1294;61637;-60
2024/01/06 05:11:30;;;;;;;27.70;17.80;;;;;;;-1.78;90.98;100294.77;104584;1294;62875;-60
2024/01/06 05:14:16;;;;;;;;;;;;;;;-1.80;90.95;100294.73;104575;1292;75144;-60
2024/01/06 05:17:03;;;;;;;28.10;18.10;;;;;;;-1.81;90.89;100295.52;104551;1294;67160;-59
2024/01/06 05:19:49;;;;;;;29.40;18.10;;;;;;;-1.84;90.91;100297.15;104539;1293;72571;-59
2024/01/06 05:22:36;;;;;;;29.60;19.00;;;;;;;-1.86;90.83;100304.84;104519;1292;61344;-60
2024/01/06 05:25:22;;;;;;;24.50;17.20;;;;;;;-1.90;90.81;100312.34;104508;1294;61183;-60
2024/01/06 05:28:08;;;;;;;28.20;17.80;;;;;;;-1.91;90.89;100312.15;104542;1293;76363;-60
2024/01/06 05:30:54;;;;;;;31.40;18.40;;;;;;;-1.92;90.79;100313.98;104463;1294;69495;-60
2024/01/06 05:33:41;;;;;;;;;;;;;;;-1.92;90.83;100313.44;104536;1294;71263;-60
2024/01/06 05:36:27;;;;;;;30.00;18.10;;;;;;;-1.93;90.86;100308.37;104564;1294;61176;-60
2024/01/06 05:39:13;;;;;;;30.10;19.60;;;;;;;-1.94;90.78;100306.31;104446;1293;63725;-60
2024/01/06 05:41:59;;;;;;;29.80;18.90;;;;;;;-1.95;90.83;100310.31;104596;1293;74230;-60
2024/01/06 05:44:46;;;;;;;33.70;20.00;;;;;;;-1.98;90.70;100312.10;104539;1297;70017;-60
2024/01/06 05:47:32;;;;;;;29.70;17.60;;;;;;;-2.02;90.63;100320.27;104332;1296;71202;-59
2024/01/06 05:50:18;;;;;;;33.80;19.00;;;;;;;-2.04;90.69;100328.32;104510;1293;61267;-60
2024/01/06 05:53:05;;;;;;;32.20;19.90;;;;;;;-2.04;90.69;100334.54;104608;1294;61696;-60
2024/01/06 05:55:51;;;;;;;29.60;18.20;;;;;;;-2.06;90.73;100340.92;105631;1294;73229;-60
2024/01/06 05:58:42;;;;;;;29.20;18.30;;;;;;;-2.06;90.67;100349.70;105767;1292;67456;-61
2024/01/06 06:01:28;;;;;;;27.80;18.30;;;;;;;-2.05;90.68;100354.79;105739;1293;292226;-61
2024/01/06 06:04:14;;;;;;;;;;;;;;;-2.02;90.70;100362.31;105864;1293;59208;-61
2024/01/06 06:07:02;;;;;;;29.80;16.80;;;;;;;-1.98;90.66;100369.69;104533;1293;61071;-60
2024/01/06 06:09:48;;;;;;;25.70;16.70;;;;;;;-1.96;90.65;100373.63;104535;1294;73932;-60
2024/01/06 06:12:35;;;;;;;26.80;17.40;;;;;;;-1.95;90.65;100378.39;104545;1293;68035;-59
2024/01/06 06:15:21;;;;;;;27.90;17.20;;;;;;;-1.95;90.70;100385.49;104524;1293;71464;-60
2024/01/06 06:18:07;;;;;;;;;;;;;;;-1.94;90.69;100389.90;104570;1292;61033;-60
2024/01/06 06:20:53;;;;;;;29.70;17.00;;;;;;;-1.93;90.76;100392.30;104538;1293;61498;-60
2024/01/06 06:23:40;;;;;;;26.00;15.70;;;;;;;-1.95;90.58;100394.27;104526;1293;73344;-60
2024/01/06 06:26:28;;;;;;;26.90;14.80;;;;;;;-1.95;90.68;100403.21;104519;1293;67929;-60
2024/01/06 06:29:14;;;;;;;23.00;15.60;;;;;;;-1.94;90.72;100401.72;105954;1293;71077;-61
2024/01/06 06:32:00;;;;;;;35.50;16.20;;;;;;;-1.95;90.59;100402.20;105970;1294;59776;-61
2024/01/06 06:34:46;;;;;;;28.70;15.90;;;;;;;-1.96;90.59;100405.38;105962;1292;59048;-61
2024/01/06 06:37:32;;;;;;;;;;;;;;;-1.94;90.68;100406.96;106001;1293;73351;-61
2024/01/06 06:40:18;;;;;;;26.00;14.00;;;;;;;-1.90;90.66;100403.70;105966;1292;67489;-61
2024/01/06 06:43:04;;;;;;;24.00;13.80;;;;;;;-1.89;90.54;100410.16;105977;1293;71714;-61
2024/01/06 06:45:50;;;;;;;22.70;14.50;;;;;;;-1.88;90.62;100414.59;105193;1294;61259;-60
2024/01/06 06:48:36;;;;;;;23.10;15.50;;;;;;;-1.86;90.66;100421.58;104495;1293;61248;-60
2024/01/06 06:51:26;;;;;;;20.20;13.80;;;;;;;-1.84;90.62;100427.03;104575;1295;73319;-60
2024/01/06 06:54:14;;;;;;;24.30;15.50;;;;;;;-1.84;90.64;100431.95;104557;1294;67777;-60
2024/01/06 06:57:01;;;;;;;25.60;16.00;;;;;;;-1.84;90.60;100437.84;104566;1293;71186;-58
2024/01/06 06:59:47;;;;;;;20.70;14.10;;;;;;;-1.86;90.63;100444.04;104563;1297;61250;-60
2024/01/06 07:02:34;;;;;;;27.00;15.70;;;;;;;-1.86;90.72;100446.59;104496;1295;61154;-60
2024/01/06 07:05:20;;;;;;;24.90;14.90;;;;;;;-1.87;90.70;100446.89;105854;1292;73220;-62
2024/01/06 07:08:06;;;;;;;24.70;14.90;;;;;;;-1.86;90.71;100456.70;105997;1293;67676;-61
2024/01/06 07:10:52;;;;;;;21.70;14.10;;;;;;;-1.86;90.65;100464.32;105906;1293;71410;-61
2024/01/06 07:13:38;;;;;;;25.20;14.80;;;;;;;-1.84;90.69;100466.40;105962;1292;59057;-61
2024/01/06 07:16:24;;;;;;;21.90;14.30;;;;;;;-1.83;90.65;100469.98;104693;1293;61160;-60
2024/01/06 07:19:11;;;;;;;22.20;14.00;;;;;;;-1.83;90.65;100472.20;104623;1294;78163;-60
2024/01/06 07:21:57;;;;;;;22.70;13.90;;;;;;;-1.81;90.66;100476.48;104591;1294;67293;-60
2024/01/06 07:24:43;;;;;;;18.80;13.40;;;;;;;-1.81;90.66;100485.26;104579;1294;71332;-60
2024/01/06 07:27:30;;;;;;;22.00;14.60;;;;;;;-1.83;90.64;100487.56;104572;1294;61203;-59
2024/01/06 07:30:16;;;;;;;25.00;14.60;;;;;;;-1.82;90.73;100493.16;104461;1293;61180;-60
2024/01/06 07:33:02;;;;;;;;;;;;;;;-1.84;90.64;100503.25;105868;1294;73254;-61
2024/01/06 07:35:50;;;;;;;23.10;14.10;;;;;;;-1.85;90.60;100505.75;105998;1292;67548;-61
2024/01/06 07:38:36;;;;;;;25.60;14.20;;;;;;;-1.86;90.59;100508.92;105932;1293;70891;-61
2024/01/06 07:41:22;;;;;;;25.50;14.60;;;;;;;-1.83;90.67;100512.90;105931;1294;59264;-60
2024/01/06 07:44:08;;;;;;;25.50;14.30;;;;;;;-1.79;90.66;100520.30;105958;1294;61029;-62
2024/01/06 07:46:54;;;;;;;18.20;12.50;;;;;;;-1.75;90.70;100524.67;105864;1293;73385;-61
2024/01/06 07:49:40;;;;;;;21.70;14.30;;;;;;;-1.75;90.61;100534.98;105879;1294;68609;-61
2024/01/06 07:52:26;;;;;;;20.50;13.40;;;;;;;-1.73;90.55;100536.38;105947;1293;72524;-62
2024/01/06 07:55:12;;;;;;;21.80;13.80;;;;;;;-1.69;90.62;100534.80;105980;1292;59063;-62
2024/01/06 07:57:58;;;;;;;;;;;;;;;-1.67;90.66;100540.79;106004;1293;60704;-61
2024/01/06 08:00:44;;;;;;;19.30;13.50;;;;;;;-1.66;90.64;100546.39;105963;1294;74599;-62
2024/01/06 08:03:30;;;;;;;21.90;13.20;;;;;;;-1.67;90.61;100543.33;106006;1293;68167;-62
2024/01/06 08:06:16;;;;;;;18.70;13.40;;;;;;;-1.69;90.59;100550.88;105973;1292;70517;-63
2024/01/06 08:09:03;;;;;;;18.40;12.80;;;;;;;-1.67;90.62;100550.59;105892;1294;58349;-62
2024/01/06 08:11:49;;;;;;;18.90;13.10;;;;;;;-1.68;90.60;100562.58;105987;1294;59269;-62
2024/01/06 08:14:35;;;;;;;16.40;11.50;;;;;;;-1.67;90.62;100568.17;105993;1294;73201;-62
2024/01/06 08:17:21;;;;;;;18.30;13.40;;;;;;;-1.66;90.61;100572.08;105817;1294;66436;-61
2024/01/06 08:20:08;;;;;;;19.40;13.40;;;;;;;-1.65;90.53;100576.86;104179;1293;508966;-61
2024/01/06 08:22:54;;;;;;;20.80;13.40;;;;;;;-1.66;90.56;100576.30;105980;1293;59226;-62
2024/01/06 08:25:40;;;;;;;;;;;;;;;-1.67;90.55;100579.51;106003;1294;59313;-62
2024/01/06 08:28:26;;;;;;;18.30;12.00;;;;;;;-1.68;90.58;100585.71;105956;1294;74785;-60
2024/01/06 08:31:12;;;;;;;18.80;12.10;;;;;;;-1.69;90.59;100593.30;105985;1292;67521;-61
2024/01/06 08:33:58;;;;;;;19.30;11.90;;;;;;;-1.68;90.55;100599.23;105914;1292;71487;-60
2024/01/06 08:36:45;;;;;;;17.10;12.20;;;;;;;-1.67;90.52;100604.34;105856;1294;60353;-60
2024/01/06 08:39:30;;;;;;;;;;;;;;;-1.65;90.56;100605.73;105945;1293;59241;-60
2024/01/06 08:42:16;;;;;;;13.70;10.30;;;;;;;-1.65;90.55;100609.14;105963;1294;73207;-61
2024/01/06 08:45:03;;;;;;;16.20;10.30;;;;;;;-1.64;90.47;100609.32;105952;1294;68300;-61
2024/01/06 08:47:50;;;;;;;16.60;11.00;;;;;;;-1.64;90.48;100608.66;105940;1292;72481;-61
2024/01/06 08:50:36;;;;;;;15.80;10.80;;;;;;;-1.64;90.39;100610.52;105975;1294;59305;-61
2024/01/06 08:53:22;;;;;;;18.20;12.00;;;;;;;-1.62;90.49;100608.20;105801;1293;59963;-62
2024/01/06 08:56:09;;;;;;;19.80;11.80;;;;;;;-1.58;90.46;100604.45;105950;1293;74557;-62
2024/01/06 08:58:55;;;;;;;15.90;11.10;;;;;;;-1.60;90.34;100604.74;105860;1292;68843;-61
2024/01/06 09:01:40;;;;;;;17.20;11.10;;;;;;;-1.61;90.34;100606.23;105885;1294;71720;-61
2024/01/06 09:04:26;;;;;;;13.20;10.00;;;;;;;-1.56;90.51;100604.84;105925;1294;58901;-61
2024/01/06 09:07:13;;;;;;;16.40;10.60;;;;;;;-1.50;90.37;100612.30;105981;1292;59012;-61
2024/01/06 09:09:59;;;;;;;;;;;;;;;-1.47;90.32;100612.90;105822;1293;73433;-61
2024/01/06 09:12:45;;;;;;;22.50;11.10;;;;;;;-1.46;90.19;100613.63;105762;1294;67519;-62
2024/01/06 09:15:31;;;;;;;18.80;12.00;;;;;;;-1.41;90.41;100614.28;105033;1295;71411;-61
2024/01/06 09:18:18;;;;;;;19.60;10.80;;;;;;;-1.35;90.59;100614.83;104461;1293;61247;-60
2024/01/06 09:21:05;;;;;;;16.50;9.80;;;;;;;-1.30;90.44;100615.46;104578;1294;62805;-61
2024/01/06 09:23:51;;;;;;;16.00;9.50;;;;;;;-1.29;90.19;100617.36;104567;1295;73280;-63
2024/01/06 09:26:37;;;;;;;;;;;;;;;-1.29;90.23;100619.40;104498;1295;70064;-60
2024/01/06 09:29:23;;;;;;;11.10;8.00;;;;;;;-1.29;90.19;100629.36;104559;1297;72002;-61
2024/01/06 09:32:10;;;;;;;;;;;;;;;-1.29;90.11;100630.55;104546;1292;61179;-61
2024/01/06 09:34:56;;;;;;;13.00;8.50;;;;;;;-1.30;89.95;100629.34;104551;1294;61181;-61
2024/01/06 09:37:42;;;;;;;;;;;;;;;-1.29;90.21;100624.48;104514;1294;76005;-61
2024/01/06 09:40:31;;;;;;;10.70;7.10;;;;;;;-1.26;90.01;100624.20;104547;1295;67355;-61
2024/01/06 09:43:18;;;;;;;10.20;7.70;;;;;;;-1.26;90.03;100622.71;104535;1294;71922;-61
2024/01/06 09:46:22;;;;;;;;;;;;;;;-1.20;90.15;100623.23;104507;1294;61132;-60
2024/01/06 09:49:09;;;;;;;14.00;8.70;;;;;;;-1.15;89.95;100619.17;104560;1297;59845;-61
2024/01/06 09:51:58;;;;;;;10.40;7.60;;;;;;;-1.13;89.44;100620.07;104576;1294;73353;-61
2024/01/06 09:54:51;;;;;;;9.90;7.60;;;;;;;-1.13;89.55;100612.81;104495;1295;67230;-61
2024/01/06 09:57:38;;;;;;;12.30;7.50;;;;;;;-1.05;89.70;100613.06;104454;1297;71361;-60
2024/01/06 10:00:24;;;;;;;12.60;6.80;;;;;;;-0.97;89.32;100611.72;105967;1293;59452;-62
2024/01/06 10:03:10;;;;;;;8.60;6.80;;;;;;;-0.92;89.29;100607.81;105986;1293;60103;-63
2024/01/06 10:06:00;;;;;;;;;;;;;;;-0.85;89.34;100607.88;105982;1293;73247;-63
2024/01/06 10:08:51;;;;;;;7.50;6.00;;;;;;;-0.79;89.39;100608.24;106002;1293;67379;-62
2024/01/06 10:11:37;;;;;;;8.30;5.50;;;;;;;-0.69;89.34;100608.53;105812;1294;71149;-61
2024/01/06 10:14:24;;;;;;;7.30;5.90;;;;;;;-0.70;88.65;100619.85;105938;1293;59339;-61
2024/01/06 10:17:11;;;;;;;9.60;6.10;;;;;;;-0.71;88.68;100622.00;105797;1294;59308;-60
2024/01/06 10:19:57;;;;;;;9.30;5.40;;;;;;;-0.71;88.93;100620.65;105939;1296;74510;-60
2024/01/06 10:22:44;;;;;;;7.90;5.10;;;;;;;-0.69;88.74;100621.73;105962;1295;67732;-61
2024/01/06 10:25:30;;;;;;;7.60;5.30;;;;;;;-0.69;88.05;100625.11;105960;1292;71139;-61
2024/01/06 10:28:16;;;;;;;;;;;;;;;-0.70;88.33;100624.57;105984;1292;59274;-61
2024/01/06 10:31:02;;;;;;;;;;;;;;;-0.70;88.45;100630.35;106004;1295;59227;-61
2024/01/06 10:33:48;;;;;;;6.50;5.00;;;;;;;-0.70;88.32;100630.99;104937;1295;73525;-61
2024/01/06 10:36:35;;;;;;;;;;;;;;;-0.67;88.60;100631.42;104620;1294;67185;-63
2024/01/06 10:39:21;;;;;;;6.10;3.90;;;;;;;-0.65;88.03;100633.35;104506;1292;71321;-61
2024/01/06 10:42:09;;;;;;;7.60;4.40;;;;;;;-0.73;87.69;100636.66;104504;1294;62185;-61
2024/01/06 10:44:55;;;;;;;4.70;4.20;;;;;;;-0.78;87.82;100649.23;104421;1294;61187;-61
2024/01/06 10:47:43;;;;;;;5.30;4.70;;;;;;;-0.74;88.02;100654.23;104533;1292;74213;-61
2024/01/06 10:50:30;;;;;;;7.80;4.10;;;;;;;-0.77;87.81;100650.08;105990;1292;67481;-62
2024/01/06 10:53:17;;;;;;;6.60;4.30;;;;;;;-0.78;87.77;100650.59;101923;1293;5006098;-62
2024/01/06 10:56:04;;;;;;;7.10;5.20;;;;;;;-0.78;87.69;100647.50;105838;1292;59143;-63
2024/01/06 10:58:51;;;;;;;8.10;4.30;;;;;;;-0.75;87.80;100650.83;105921;1292;73310;-63
2024/01/06 11:01:40;;;;;;;5.80;4.20;;;;;;;-0.70;87.83;100646.57;105463;1294;67411;-61
2024/01/06 11:04:28;;;;;;;5.20;3.90;;;;;;;-0.70;87.56;100645.89;104499;1293;71411;-59
2024/01/06 11:07:17;;;;;;;8.20;4.90;;;;;;;-0.69;87.32;100644.40;104498;1294;60060;-60
2024/01/06 11:10:15;;;;;;;7.10;4.80;;;;;;;-0.69;87.41;100645.92;104565;1295;61158;-60
2024/01/06 11:13:11;;;;;;;5.90;4.40;;;;;;;-0.67;87.34;100645.81;104499;1294;73430;-60
2024/01/06 11:15:57;;;;;;;7.10;4.60;;;;;;;-0.61;87.38;100642.10;104548;1294;67169;-61
2024/01/06 11:18:45;;;;;;;;;;;;;;;-0.55;87.01;100643.12;104546;1293;73300;-59
2024/01/06 11:21:34;;;;;;;5.90;4.30;;;;;;;-0.52;87.16;100643.02;104495;1294;61324;-60
2024/01/06 11:24:26;;;;;;;8.40;4.70;;;;;;;-0.45;87.07;100644.23;104532;1295;61576;-62
2024/01/06 11:27:17;;;;;;;5.80;4.40;;;;;;;-0.41;86.55;100645.21;105971;1292;73162;-62
2024/01/06 11:30:07;;;;;;;8.20;4.80;;;;;;;-0.34;87.12;100639.30;105915;1294;68586;-63
2024/01/06 11:32:58;;;;;;;6.00;4.20;;;;;;;-0.31;86.39;100637.02;105762;1293;71384;-63
2024/01/06 11:35:49;;;;;;;6.60;4.70;;;;;;;-0.28;86.70;100636.41;105836;1294;59531;-63
2024/01/06 11:38:39;;;;;;;8.20;4.80;;;;;;;-0.26;86.99;100633.27;105931;1295;59099;-62
2024/01/06 11:41:49;;;;;;;4.90;3.30;;;;;;;-0.23;86.32;100642.66;105965;1293;73359;-60
2024/01/06 11:44:42;;;;;;;7.70;4.00;;;;;;;-0.27;86.22;100640.70;105950;1293;69032;-61
2024/01/06 11:47:30;;;;;;;5.80;4.00;;;;;;;-0.26;86.39;100639.38;105931;1293;72411;-60
2024/01/06 11:50:17;;;;;;;10.70;4.10;;;;;;;-0.23;86.95;100638.45;105911;1294;58933;-60
2024/01/06 11:53:03;;;;;;;;;;;;;;;-0.22;86.24;100636.59;105990;1293;59640;-60
2024/01/06 11:55:49;;;;;;;7.70;4.20;;;;;;;-0.28;85.67;100636.59;105963;1293;72625;-60
2024/01/06 11:58:38;;;;;;;6.30;3.80;;;;;;;-0.33;85.70;100635.61;105958;1292;68061;-60
2024/01/06 12:01:25;;;;;;;5.50;3.70;;;;;;;-0.36;85.50;100627.74;105961;1295;71299;-60
2024/01/06 12:04:14;;;;;;;5.50;3.90;;;;;;;-0.39;85.33;100639.49;105969;1292;59777;-61
2024/01/06 12:07:13;;;;;;;5.50;4.20;;;;;;;-0.41;85.28;100638.11;105218;1293;61152;-60
2024/01/06 12:10:03;;;;;;;5.40;4.00;;;;;;;-0.40;85.20;100635.60;104590;1293;73666;-62
2024/01/06 12:13:01;;;;;;;7.00;4.50;;;;;;;-0.43;85.21;100636.52;105991;1293;67669;-62
2024/01/06 12:15:47;;;;;;;5.20;3.70;;;;;;;-0.39;85.54;100634.27;105934;1293;71315;-63
2024/01/06 12:18:33;;;;;;;4.80;3.70;;;;;;;-0.40;84.67;100639.46;105977;1294;59258;-63
2024/01/06 12:21:19;;;;;;;5.30;3.90;;;;;;;-0.46;84.84;100639.14;105985;1293;60494;-63
2024/01/06 12:24:22;;;;;;;5.50;4.20;;;;;;;-0.43;85.09;100643.28;105976;1294;74543;-63
2024/01/06 12:27:11;;;;;;;6.90;4.30;;;;;;;-0.42;84.97;100650.26;105990;1293;67521;-63
2024/01/06 12:29:57;;;;;;;5.40;4.20;;;;;;;-0.43;84.73;100652.94;105953;1292;72407;-64
2024/01/06 12:32:45;;;;;;;6.00;4.50;;;;;;;-0.48;84.47;100655.66;105988;1294;58689;-61
2024/01/06 12:35:31;;;;;;;7.00;4.30;;;;;;;-0.51;84.43;100664.39;105956;1297;59872;-61
2024/01/06 12:38:20;;;;;;;6.60;4.50;;;;;;;-0.54;83.91;100670.06;105974;1293;74821;-61
2024/01/06 12:41:05;;;;;;;5.60;4.40;;;;;;;-0.56;84.38;100672.88;105993;1297;69371;-61
2024/01/06 12:43:51;;;;;;;5.50;4.10;;;;;;;-0.56;84.20;100677.48;105814;1292;71362;-61